Time;durP1;ratioP1;P1;durP2;ratioP2;P2;SDS_P1;SDS_P2;PMS_P1;PMS_P2;Temp;Humidity;BMP_temperature;BMP_pressure;BME280_temperature;BME280_humidity;BME280_pressure;Samples;Min_cycle;Max_cycle;Signal;HPM_P1;HPM_P2
2020/12/30 00:00:29;;;;;;;0.32;0.32;;;2.60;99.90;;;;;;4399501;32;20090;-74
2020/12/30 00:02:55;;;;;;;0.30;0.30;;;2.70;99.90;;;;;;4399160;32;20086;-74
2020/12/30 00:05:21;;;;;;;0.40;0.40;;;2.60;99.90;;;;;;4399079;32;20062;-74
2020/12/30 00:07:46;;;;;;;0.40;0.40;;;2.60;99.90;;;;;;4398642;32;20066;-74
2020/12/30 00:10:15;;;;;;;0.32;0.32;;;2.60;99.90;;;;;;4397636;32;20087;-74
2020/12/30 00:12:40;;;;;;;0.47;0.47;;;2.60;99.90;;;;;;4384329;32;20057;-74
2020/12/30 00:15:07;;;;;;;0.60;0.60;;;2.60;99.90;;;;;;4385177;32;20054;-74
2020/12/30 00:17:33;;;;;;;0.40;0.40;;;2.60;99.90;;;;;;4387646;32;20062;-74
2020/12/30 00:19:58;;;;;;;0.30;0.30;;;2.60;99.90;;;;;;4398977;32;20057;-74
2020/12/30 00:22:24;;;;;;;0.30;0.30;;;2.40;99.90;;;;;;4398231;32;20077;-74
2020/12/30 00:24:50;;;;;;;0.45;0.45;;;2.30;99.90;;;;;;4399422;32;20117;-75
2020/12/30 00:27:15;;;;;;;0.50;0.50;;;2.30;99.90;;;;;;4398613;32;20069;-74
2020/12/30 00:29:41;;;;;;;0.30;0.30;;;2.30;99.90;;;;;;4399317;32;20429;-73
2020/12/30 00:32:10;;;;;;;0.57;0.57;;;2.40;99.90;;;;;;4398682;32;20062;-74
2020/12/30 00:34:37;;;;;;;0.30;0.30;;;2.40;99.90;;;;;;4399046;32;20119;-74
2020/12/30 00:37:02;;;;;;;0.57;0.47;;;2.40;99.90;;;;;;4399107;32;20075;-74
2020/12/30 00:39:28;;;;;;;0.47;0.47;;;2.40;99.90;;;;;;4399524;32;20058;-74
2020/12/30 00:41:54;;;;;;;0.47;0.47;;;2.40;99.90;;;;;;4398130;32;20503;-74
2020/12/30 00:44:19;;;;;;;0.40;0.40;;;2.40;99.90;;;;;;4397904;32;20073;-74
2020/12/30 00:46:50;;;;;;;0.57;0.57;;;2.40;99.90;;;;;;4398734;32;20074;-74
2020/12/30 00:49:16;;;;;;;0.52;0.52;;;2.40;99.90;;;;;;4398213;32;20057;-74
2020/12/30 00:51:41;;;;;;;0.30;0.30;;;2.40;99.90;;;;;;4397800;32;20519;-74
2020/12/30 00:54:06;;;;;;;0.43;0.43;;;2.40;99.90;;;;;;4398830;32;20063;-74
2020/12/30 00:56:32;;;;;;;0.30;0.30;;;2.40;99.90;;;;;;4397500;32;20070;-74
2020/12/30 00:58:57;;;;;;;0.30;0.30;;;2.40;99.90;;;;;;4398444;32;20070;-74
2020/12/30 01:01:23;;;;;;;0.30;0.30;;;2.40;99.90;;;;;;4399265;32;20065;-74
2020/12/30 01:03:48;;;;;;;2.90;0.75;;;2.30;99.90;;;;;;4398382;32;20274;-74
2020/12/30 01:06:14;;;;;;;0.40;0.40;;;2.40;99.90;;;;;;4398620;32;20083;-74
2020/12/30 01:08:39;;;;;;;0.40;0.40;;;2.40;99.90;;;;;;4398139;32;20058;-74
2020/12/30 01:11:05;;;;;;;1.37;1.15;;;2.40;99.90;;;;;;4391580;32;20080;-74
2020/12/30 01:13:30;;;;;;;0.40;0.40;;;2.30;99.90;;;;;;4383747;32;20054;-74
2020/12/30 01:15:56;;;;;;;0.40;0.40;;;2.20;99.90;;;;;;4383224;32;20070;-74
2020/12/30 01:18:21;;;;;;;0.30;0.30;;;2.20;99.90;;;;;;4392607;32;20059;-74
2020/12/30 01:20:47;;;;;;;0.37;0.37;;;2.30;99.90;;;;;;4398176;32;20069;-74
2020/12/30 01:23:12;;;;;;;0.77;0.77;;;2.40;99.90;;;;;;4397684;32;20074;-74
2020/12/30 01:25:38;;;;;;;0.30;0.30;;;2.40;99.90;;;;;;4398302;32;20520;-74
2020/12/30 01:28:03;;;;;;;0.62;0.62;;;2.40;99.90;;;;;;4398023;32;20078;-74
2020/12/30 01:30:29;;;;;;;0.30;0.30;;;2.40;99.90;;;;;;4398174;32;20523;-74
2020/12/30 01:32:54;;;;;;;0.68;0.62;;;2.40;99.90;;;;;;4398449;32;20116;-74
2020/12/30 01:35:20;;;;;;;0.93;0.88;;;2.50;99.90;;;;;;4398579;32;20070;-74
2020/12/30 01:37:45;;;;;;;0.40;0.40;;;2.50;99.90;;;;;;4398336;32;20500;-74
2020/12/30 01:40:11;;;;;;;0.57;0.57;;;2.50;99.90;;;;;;4398590;32;20177;-74
2020/12/30 01:42:46;;;;;;;0.85;0.82;;;2.50;99.90;;;;;;4397700;32;20078;-74
2020/12/30 01:45:12;;;;;;;0.55;0.55;;;2.40;99.90;;;;;;4397947;32;20058;-74
2020/12/30 01:47:38;;;;;;;1.87;1.25;;;2.40;99.90;;;;;;4398586;32;20483;-74
2020/12/30 01:50:05;;;;;;;0.37;0.37;;;2.40;99.90;;;;;;4397923;32;20062;-74
2020/12/30 01:52:32;;;;;;;0.50;0.50;;;2.40;99.90;;;;;;4397481;32;20066;-74
2020/12/30 01:54:58;;;;;;;0.30;0.30;;;2.50;99.90;;;;;;4399035;32;20066;-74
2020/12/30 01:57:23;;;;;;;0.45;0.45;;;2.50;99.90;;;;;;4401624;32;20062;-74
2020/12/30 01:59:49;;;;;;;0.40;0.40;;;2.50;99.90;;;;;;4401989;32;20070;-74
2020/12/30 02:02:15;;;;;;;3.65;1.30;;;2.40;99.90;;;;;;4400648;32;20062;-74
2020/12/30 02:04:50;;;;;;;0.30;0.30;;;2.40;99.90;;;;;;4400450;32;20062;-74
2020/12/30 02:07:17;;;;;;;0.43;0.43;;;2.50;99.90;;;;;;4402007;32;20452;-74
2020/12/30 02:09:44;;;;;;;0.40;0.40;;;2.50;99.90;;;;;;4401384;32;20070;-74
2020/12/30 02:12:11;;;;;;;0.30;0.30;;;2.50;99.90;;;;;;4387417;32;20069;-74
2020/12/30 02:14:36;;;;;;;0.50;0.50;;;2.50;99.90;;;;;;4386621;32;20078;-74
2020/12/30 02:17:02;;;;;;;0.40;0.40;;;2.40;99.90;;;;;;4387031;32;20071;-74
2020/12/30 02:19:28;;;;;;;0.40;0.40;;;2.50;99.90;;;;;;4400399;32;20125;-74
2020/12/30 02:21:59;;;;;;;0.20;0.20;;;2.50;99.90;;;;;;4399965;32;20067;-74
2020/12/30 02:24:27;;;;;;;0.28;0.28;;;2.50;99.90;;;;;;4400003;32;20075;-74
2020/12/30 02:26:54;;;;;;;0.30;0.30;;;2.60;99.90;;;;;;4400032;32;20058;-74
2020/12/30 02:29:20;;;;;;;0.30;0.30;;;2.60;99.90;;;;;;4400447;32;20062;-74
2020/12/30 02:31:45;;;;;;;0.30;0.30;;;2.70;99.90;;;;;;4401513;32;20074;-74
2020/12/30 02:34:11;;;;;;;0.30;0.30;;;2.60;99.90;;;;;;4399836;32;20083;-74
2020/12/30 02:36:36;;;;;;;0.40;0.40;;;2.70;99.90;;;;;;4400818;32;20086;-74
2020/12/30 02:39:03;;;;;;;0.50;0.50;;;2.70;99.90;;;;;;4399827;32;20082;-74
2020/12/30 02:41:28;;;;;;;0.30;0.30;;;2.70;99.90;;;;;;4399540;32;20511;-74
2020/12/30 02:43:54;;;;;;;0.40;0.40;;;2.70;99.90;;;;;;4399988;32;20065;-74
2020/12/30 02:46:19;;;;;;;1.50;0.62;;;2.60;99.90;;;;;;4399915;32;20066;-74
2020/12/30 02:48:44;;;;;;;0.30;0.30;;;2.60;99.90;;;;;;4400181;32;20070;-74
2020/12/30 02:51:10;;;;;;;0.30;0.30;;;2.60;99.90;;;;;;4400140;32;20117;-74
2020/12/30 02:53:35;;;;;;;0.40;0.40;;;2.60;99.90;;;;;;4399300;32;20321;-74
2020/12/30 02:56:01;;;;;;;0.52;0.52;;;2.70;99.90;;;;;;4400468;32;20495;-74
2020/12/30 02:58:27;;;;;;;0.30;0.30;;;2.70;99.90;;;;;;4401019;32;20117;-74
2020/12/30 03:00:52;;;;;;;0.30;0.30;;;2.60;99.90;;;;;;4400676;32;20455;-74
2020/12/30 03:03:17;;;;;;;0.30;0.30;;;2.60;99.90;;;;;;4400818;32;20071;-74
2020/12/30 03:05:43;;;;;;;0.30;0.30;;;2.60;99.90;;;;;;4399471;32;20512;-74
2020/12/30 03:08:08;;;;;;;0.75;0.75;;;2.60;99.90;;;;;;4399921;32;20201;-74
2020/12/30 03:10:34;;;;;;;0.30;0.30;;;2.60;99.90;;;;;;4396155;32;20062;-74
2020/12/30 03:12:59;;;;;;;0.30;0.30;;;2.60;99.90;;;;;;4384826;32;20069;-74
2020/12/30 03:15:25;;;;;;;0.40;0.40;;;2.50;99.90;;;;;;4384686;32;20055;-74
2020/12/30 03:17:50;;;;;;;0.37;0.37;;;2.50;99.90;;;;;;4390355;32;20143;-74
2020/12/30 03:20:16;;;;;;;0.50;0.50;;;2.50;99.90;;;;;;4399927;32;20062;-74
2020/12/30 03:22:41;;;;;;;0.50;0.50;;;2.60;99.90;;;;;;4399093;32;20071;-74
2020/12/30 03:25:07;;;;;;;1.67;0.70;;;2.60;99.90;;;;;;4399147;32;20059;-74
2020/12/30 03:27:32;;;;;;;0.60;0.60;;;2.60;99.90;;;;;;4399918;32;20078;-74
2020/12/30 03:29:58;;;;;;;0.40;0.40;;;2.70;99.90;;;;;;4400268;32;20062;-74
2020/12/30 03:32:23;;;;;;;0.52;0.52;;;2.60;99.90;;;;;;4400081;32;20079;-74
2020/12/30 03:34:49;;;;;;;0.40;0.40;;;2.60;99.90;;;;;;4399245;32;20074;-74
2020/12/30 03:37:14;;;;;;;0.32;0.32;;;2.70;99.90;;;;;;4399153;32;20125;-74
2020/12/30 03:39:40;;;;;;;3.03;1.17;;;2.60;99.90;;;;;;4399350;32;20118;-74
2020/12/30 03:42:06;;;;;;;0.32;0.32;;;2.60;99.90;;;;;;4399489;32;20074;-74
2020/12/30 03:44:33;;;;;;;0.30;0.30;;;2.60;99.90;;;;;;4398703;32;20133;-74
2020/12/30 03:46:59;;;;;;;0.40;0.40;;;2.70;99.90;;;;;;4399156;32;20129;-74
2020/12/30 03:49:25;;;;;;;0.30;0.30;;;2.70;99.90;;;;;;4399634;32;20070;-74
2020/12/30 03:51:50;;;;;;;0.40;0.40;;;2.70;99.90;;;;;;4398218;32;20117;-74
2020/12/30 03:54:15;;;;;;;0.57;0.57;;;2.70;99.90;;;;;;4399074;32;20079;-74
2020/12/30 03:56:41;;;;;;;0.30;0.30;;;2.70;99.90;;;;;;4399604;32;20113;-74
2020/12/30 03:59:06;;;;;;;0.30;0.30;;;2.60;99.90;;;;;;4400155;32;20393;-74
2020/12/30 04:01:32;;;;;;;0.30;0.30;;;2.60;99.90;;;;;;4400269;32;20082;-74
2020/12/30 04:03:57;;;;;;;0.50;0.50;;;2.50;99.90;;;;;;4400230;32;20062;-74
2020/12/30 04:06:23;;;;;;;0.70;0.60;;;2.50;99.90;;;;;;4399076;32;20081;-74
2020/12/30 04:08:48;;;;;;;0.30;0.30;;;2.60;99.90;;;;;;4399587;32;20467;-74
2020/12/30 04:11:14;;;;;;;0.30;0.30;;;2.50;99.90;;;;;;4390782;32;20431;-74
2020/12/30 04:13:39;;;;;;;0.30;0.30;;;2.50;99.90;;;;;;4383634;32;20062;-74
2020/12/30 04:16:05;;;;;;;0.32;0.32;;;2.60;99.90;;;;;;4384137;32;20129;-74
2020/12/30 04:18:30;;;;;;;0.30;0.30;;;2.60;99.90;;;;;;4394465;32;20077;-74
2020/12/30 04:20:56;;;;;;;0.40;0.40;;;2.60;99.90;;;;;;4400166;32;20610;-74
2020/12/30 04:23:21;;;;;;;0.60;0.60;;;2.60;99.90;;;;;;4399136;32;20062;-74
2020/12/30 04:25:48;;;;;;;0.32;0.32;;;2.60;99.90;;;;;;4399647;32;20078;-74
2020/12/30 04:28:15;;;;;;;0.40;0.40;;;2.60;99.90;;;;;;4400332;32;20082;-74
2020/12/30 04:30:40;;;;;;;0.30;0.30;;;2.50;99.90;;;;;;4399065;32;20154;-74
2020/12/30 04:33:06;;;;;;;0.98;0.95;;;2.50;99.90;;;;;;4398643;32;20070;-74
2020/12/30 04:35:31;;;;;;;0.40;0.40;;;2.50;99.90;;;;;;4398659;32;20128;-74
2020/12/30 04:37:57;;;;;;;0.35;0.35;;;2.60;99.90;;;;;;4400276;32;20112;-74
2020/12/30 04:40:23;;;;;;;0.30;0.30;;;2.60;99.90;;;;;;4397498;32;20070;-74
2020/12/30 04:42:51;;;;;;;0.30;0.30;;;2.60;99.90;;;;;;4398917;32;20126;-74
2020/12/30 04:45:18;;;;;;;1.75;0.82;;;2.60;99.90;;;;;;4399591;32;20077;-74
2020/12/30 04:47:47;;;;;;;0.37;0.37;;;2.70;99.90;;;;;;4398806;32;20078;-74
2020/12/30 04:50:12;;;;;;;0.60;0.60;;;2.60;99.90;;;;;;4399547;32;20083;-74
2020/12/30 04:52:40;;;;;;;0.30;0.30;;;2.60;99.90;;;;;;4399383;32;20070;-74
2020/12/30 04:55:06;;;;;;;0.30;0.30;;;2.60;99.90;;;;;;4399441;32;20070;-74
2020/12/30 04:57:57;;;;;;;0.40;0.40;;;2.50;99.90;;;;;;4398309;32;20074;-74
2020/12/30 05:00:24;;;;;;;0.45;0.45;;;2.60;99.90;;;;;;4388372;32;20066;-74
2020/12/30 05:02:52;;;;;;;0.40;0.40;;;2.60;99.90;;;;;;4398690;32;20078;-74
2020/12/30 05:05:17;;;;;;;0.50;0.50;;;2.60;99.90;;;;;;4398615;32;20069;-74
2020/12/30 05:07:45;;;;;;;0.47;0.47;;;2.60;99.90;;;;;;4398827;32;20061;-74
2020/12/30 05:10:14;;;;;;;0.40;0.40;;;2.60;99.90;;;;;;4397021;32;20058;-74
2020/12/30 05:12:40;;;;;;;0.32;0.32;;;2.50;99.90;;;;;;4383839;32;20091;-74
2020/12/30 05:15:06;;;;;;;0.40;0.40;;;2.50;99.90;;;;;;4383150;32;20066;-74
2020/12/30 05:17:33;;;;;;;0.25;0.25;;;2.50;99.90;;;;;;4387510;32;20058;-73
2020/12/30 05:19:59;;;;;;;0.40;0.40;;;2.50;99.90;;;;;;4399714;32;20078;-74
2020/12/30 05:22:24;;;;;;;0.30;0.30;;;2.50;99.90;;;;;;4397844;32;20504;-74
2020/12/30 05:24:50;;;;;;;0.40;0.40;;;2.60;99.90;;;;;;4399017;32;20487;-74
2020/12/30 05:27:17;;;;;;;0.47;0.47;;;2.40;99.90;;;;;;4398234;32;20118;-74
2020/12/30 05:29:46;;;;;;;0.40;0.40;;;2.40;99.90;;;;;;4399528;32;20414;-74
2020/12/30 05:32:12;;;;;;;0.47;0.47;;;2.40;99.90;;;;;;4401218;32;20054;-74
2020/12/30 05:34:37;;;;;;;0.32;0.32;;;2.40;99.90;;;;;;4400462;32;20089;-74
2020/12/30 05:37:03;;;;;;;0.40;0.40;;;2.30;99.90;;;;;;4400799;32;20058;-74
2020/12/30 05:39:33;;;;;;;0.40;0.40;;;2.30;99.90;;;;;;4400707;32;20078;-74
2020/12/30 05:42:19;;;;;;;0.85;0.73;;;2.40;99.90;;;;;;4400461;32;20058;-74
2020/12/30 05:44:46;;;;;;;0.37;0.37;;;2.40;99.90;;;;;;4388567;32;20070;-74
2020/12/30 05:47:22;;;;;;;0.40;0.40;;;2.40;99.90;;;;;;4400894;32;20050;-74
2020/12/30 05:49:50;;;;;;;0.40;0.40;;;2.40;99.90;;;;;;4401195;32;20508;-74
2020/12/30 05:52:26;;;;;;;0.62;0.62;;;2.50;99.90;;;;;;4398336;32;20055;-74
2020/12/30 05:54:56;;;;;;;0.93;0.93;;;2.40;99.90;;;;;;4385489;32;20086;-74
2020/12/30 05:57:31;;;;;;;3.95;1.27;;;2.40;99.90;;;;;;4385581;32;20125;-74
2020/12/30 06:00:02;;;;;;;0.40;0.40;;;2.40;99.90;;;;;;4385207;32;20070;-74
2020/12/30 06:02:29;;;;;;;0.30;0.30;;;2.30;99.90;;;;;;4390444;32;20158;-74
2020/12/30 06:05:06;;;;;;;0.40;0.40;;;2.30;99.90;;;;;;4400221;32;20065;-74
2020/12/30 06:07:33;;;;;;;0.40;0.40;;;2.30;99.90;;;;;;4401394;32;20070;-74
2020/12/30 06:10:02;;;;;;;0.30;0.30;;;2.20;99.90;;;;;;4386890;32;20066;-74
2020/12/30 06:12:31;;;;;;;0.40;0.40;;;2.30;99.90;;;;;;4399789;32;20110;-74
2020/12/30 06:14:56;;;;;;;0.40;0.40;;;2.30;99.90;;;;;;4400235;32;20069;-74
2020/12/30 06:17:25;;;;;;;0.40;0.40;;;2.20;99.90;;;;;;4398130;32;20877;-74
2020/12/30 06:19:52;;;;;;;0.30;0.30;;;2.10;99.90;;;;;;4385280;32;20115;-74
2020/12/30 06:22:20;;;;;;;23.27;1.60;;;2.10;99.90;;;;;;4385184;32;20476;-74
2020/12/30 06:24:51;;;;;;;0.40;0.40;;;2.10;99.90;;;;;;4384747;32;20071;-74
2020/12/30 06:27:21;;;;;;;;;;;2.20;99.90;;;;;;4385379;32;20062;-74
2020/12/30 06:29:49;;;;;;;0.50;0.50;;;2.10;99.90;;;;;;4386196;32;19956;-74
2020/12/30 06:32:32;;;;;;;2.15;0.62;;;2.10;99.90;;;;;;4385723;32;20453;-74
2020/12/30 06:34:59;;;;;;;0.40;0.40;;;2.20;99.90;;;;;;4384976;32;20046;-74
2020/12/30 06:37:29;;;;;;;0.32;0.32;;;2.20;99.90;;;;;;4386697;32;20106;-74
2020/12/30 06:40:19;;;;;;;0.52;0.52;;;2.10;99.90;;;;;;4384417;32;20114;-74
2020/12/30 06:42:45;;;;;;;1.17;0.50;;;2.10;99.90;;;;;;4361221;32;20524;-74
2020/12/30 06:45:13;;;;;;;0.32;0.32;;;2.00;99.90;;;;;;4385771;32;20507;-74
2020/12/30 06:47:59;;;;;;;1.10;0.68;;;2.00;99.90;;;;;;4384893;32;20053;-74
2020/12/30 06:50:25;;;;;;;0.45;0.45;;;2.10;99.90;;;;;;4374848;32;20093;-74
2020/12/30 06:52:50;;;;;;;0.30;0.30;;;2.10;99.90;;;;;;4385563;32;20054;-74
2020/12/30 06:55:16;;;;;;;0.40;0.40;;;2.10;99.90;;;;;;4384036;32;20543;-74
2020/12/30 06:57:44;;;;;;;0.40;0.40;;;2.10;99.90;;;;;;4390694;32;20082;-74
2020/12/30 07:00:32;;;;;;;0.43;0.43;;;2.10;99.90;;;;;;4399754;32;20413;-74
2020/12/30 07:03:15;;;;;;;0.30;0.30;;;2.10;99.90;;;;;;4390584;32;20050;-74
2020/12/30 07:05:41;;;;;;;0.30;0.30;;;2.10;99.90;;;;;;4399566;32;20054;-74
2020/12/30 07:08:07;;;;;;;0.30;0.30;;;2.00;99.90;;;;;;4401189;32;20061;-74
2020/12/30 07:10:40;;;;;;;0.30;0.30;;;2.00;99.90;;;;;;4396498;32;20516;-74
2020/12/30 07:13:05;;;;;;;1.02;0.98;;;1.90;99.90;;;;;;4384096;32;20058;-74
2020/12/30 07:15:31;;;;;;;1.67;0.90;;;1.90;99.90;;;;;;4385397;32;20055;-74
2020/12/30 07:17:56;;;;;;;0.30;0.30;;;1.80;99.90;;;;;;4390819;32;20421;-74
2020/12/30 07:20:24;;;;;;;0.50;0.50;;;1.70;99.90;;;;;;4399727;32;20125;-74
2020/12/30 07:22:49;;;;;;;0.30;0.30;;;1.80;99.90;;;;;;4399484;32;20062;-74
2020/12/30 07:25:16;;;;;;;0.30;0.30;;;1.80;99.90;;;;;;4398679;32;20124;-74
2020/12/30 07:27:42;;;;;;;0.50;0.50;;;1.80;99.90;;;;;;4399760;32;20079;-74
2020/12/30 07:30:08;;;;;;;0.40;0.40;;;1.90;99.90;;;;;;4399238;32;20066;-74
2020/12/30 07:32:34;;;;;;;0.75;0.75;;;2.00;99.90;;;;;;4399337;32;20054;-74
2020/12/30 07:35:00;;;;;;;2.80;2.00;;;2.00;99.90;;;;;;4399530;32;20070;-74
2020/12/30 07:37:26;;;;;;;0.43;0.43;;;2.00;99.90;;;;;;4399456;32;20054;-74
2020/12/30 07:39:52;;;;;;;0.30;0.30;;;2.10;99.90;;;;;;4398815;32;20464;-74
2020/12/30 07:42:20;;;;;;;0.37;0.37;;;2.00;99.90;;;;;;4399114;32;20405;-74
2020/12/30 07:44:48;;;;;;;0.50;0.50;;;1.70;99.90;;;;;;4384662;32;20081;-74
2020/12/30 07:47:15;;;;;;;0.40;0.40;;;1.50;99.90;;;;;;4399158;32;20057;-74
2020/12/30 07:49:41;;;;;;;0.32;0.32;;;1.40;99.90;;;;;;4399527;32;20489;-74
2020/12/30 07:52:07;;;;;;;0.40;0.40;;;1.40;99.90;;;;;;4397644;32;20118;-74
2020/12/30 07:54:33;;;;;;;0.30;0.30;;;1.40;99.90;;;;;;4398930;32;20126;-74
2020/12/30 07:57:09;;;;;;;1.55;0.60;;;1.40;99.90;;;;;;4398974;32;20057;-74
2020/12/30 07:59:36;;;;;;;2.20;0.80;;;1.30;99.90;;;;;;4398888;32;20571;-74
2020/12/30 08:02:05;;;;;;;0.30;0.30;;;1.20;99.90;;;;;;4399377;32;20063;-73
2020/12/30 08:04:33;;;;;;;0.30;0.30;;;1.20;99.90;;;;;;4399378;32;20120;-74
2020/12/30 08:07:02;;;;;;;0.37;0.37;;;1.20;99.90;;;;;;4387225;32;20058;-74
2020/12/30 08:09:30;;;;;;;0.40;0.40;;;1.20;99.90;;;;;;4384425;32;20071;-75
2020/12/30 08:11:58;;;;;;;0.30;0.30;;;1.30;99.90;;;;;;4394116;32;20070;-74
2020/12/30 08:14:26;;;;;;;0.43;0.43;;;1.30;99.90;;;;;;4398809;32;20492;-74
2020/12/30 08:16:54;;;;;;;0.30;0.30;;;1.30;99.90;;;;;;4398642;32;20062;-74
2020/12/30 08:19:38;;;;;;;0.30;0.30;;;1.40;99.90;;;;;;4383675;32;20079;-74
2020/12/30 08:22:08;;;;;;;0.30;0.30;;;1.50;99.90;;;;;;4383148;32;20083;-74
2020/12/30 08:24:37;;;;;;;0.37;0.37;;;1.50;99.90;;;;;;4383400;32;20165;-74
2020/12/30 08:27:03;;;;;;;0.60;0.60;;;1.70;99.90;;;;;;4384568;32;20132;-74
2020/12/30 08:29:30;;;;;;;0.40;0.40;;;1.80;99.90;;;;;;4384392;32;20089;-74
2020/12/30 08:31:58;;;;;;;0.40;0.40;;;1.80;99.90;;;;;;4384949;32;20409;-74
2020/12/30 08:34:28;;;;;;;0.37;0.37;;;1.90;99.90;;;;;;4384707;32;20500;-74
2020/12/30 08:37:01;;;;;;;0.88;0.65;;;2.10;99.90;;;;;;4384506;32;20580;-74
2020/12/30 08:39:28;;;;;;;0.30;0.30;;;2.10;99.90;;;;;;4383946;32;20065;-74
2020/12/30 08:41:58;;;;;;;0.45;0.45;;;2.20;99.90;;;;;;4380571;32;95221;-74
2020/12/30 08:44:25;;;;;;;0.52;0.52;;;2.20;99.90;;;;;;4383174;32;20063;-74
2020/12/30 08:46:55;;;;;;;0.62;0.62;;;2.20;99.90;;;;;;4384146;32;20091;-74
2020/12/30 08:49:22;;;;;;;0.40;0.40;;;2.20;99.90;;;;;;4383824;32;20122;-74
2020/12/30 08:51:47;;;;;;;0.47;0.47;;;2.20;99.90;;;;;;4383279;32;20066;-74
2020/12/30 08:54:15;;;;;;;1.35;1.20;;;2.30;99.90;;;;;;4383251;32;20066;-74
2020/12/30 08:56:43;;;;;;;0.77;0.77;;;2.50;99.90;;;;;;4386906;32;20069;-74
2020/12/30 08:59:08;;;;;;;3.50;1.80;;;2.60;99.90;;;;;;4399065;32;20069;-74
2020/12/30 09:01:37;;;;;;;0.62;0.57;;;2.70;99.90;;;;;;4398940;32;20061;-74
2020/12/30 09:04:11;;;;;;;0.30;0.30;;;2.90;99.90;;;;;;4399351;32;20070;-74
2020/12/30 09:06:37;;;;;;;0.75;0.75;;;2.80;99.90;;;;;;4391615;32;20075;-74
2020/12/30 09:09:12;;;;;;;0.52;0.52;;;2.80;99.90;;;;;;4386855;32;20082;-74
2020/12/30 09:11:45;;;;;;;0.30;0.30;;;2.70;99.90;;;;;;4394936;32;20078;-74
2020/12/30 09:14:14;;;;;;;0.80;0.80;;;2.90;99.90;;;;;;4401539;32;20129;-73
2020/12/30 09:17:05;;;;;;;0.73;0.73;;;3.00;99.90;;;;;;4401107;32;20065;-74
2020/12/30 09:19:31;;;;;;;1.25;1.17;;;3.10;99.90;;;;;;4374942;32;20078;-74
2020/12/30 09:22:12;;;;;;;0.50;0.50;;;3.20;99.90;;;;;;4385257;32;20441;-74
2020/12/30 09:24:39;;;;;;;0.70;0.70;;;3.40;99.90;;;;;;4385190;32;20515;-74
2020/12/30 09:27:16;;;;;;;0.40;0.40;;;3.40;99.90;;;;;;4385927;32;20059;-74
2020/12/30 09:29:42;;;;;;;0.55;0.55;;;3.60;99.90;;;;;;4385822;32;20505;-74
2020/12/30 09:32:07;;;;;;;0.40;0.40;;;3.70;99.90;;;;;;4385765;32;20118;-74
2020/12/30 09:34:33;;;;;;;0.43;0.43;;;3.70;99.90;;;;;;4386077;32;20074;-74
2020/12/30 09:36:58;;;;;;;0.40;0.40;;;3.80;99.90;;;;;;4386374;32;20128;-74
2020/12/30 09:39:26;;;;;;;0.65;0.65;;;4.00;99.90;;;;;;4385545;32;20091;-74
2020/12/30 09:42:01;;;;;;;0.40;0.40;;;3.90;99.90;;;;;;4385382;32;20074;-74
2020/12/30 09:44:26;;;;;;;1.00;1.00;;;4.10;99.90;;;;;;4385146;32;20174;-74
2020/12/30 09:46:52;;;;;;;0.73;0.62;;;4.30;99.90;;;;;;4385455;32;20070;-74
2020/12/30 09:49:18;;;;;;;13.62;0.80;;;4.40;99.90;;;;;;4385524;32;20121;-74
2020/12/30 09:51:44;;;;;;;0.50;0.50;;;4.30;99.90;;;;;;4384832;32;20484;-74
2020/12/30 09:54:09;;;;;;;0.30;0.30;;;4.40;99.90;;;;;;4386664;32;20078;-74
2020/12/30 09:56:35;;;;;;;0.30;0.30;;;4.40;99.90;;;;;;4389307;32;20519;-74
2020/12/30 09:59:02;;;;;;;0.50;0.50;;;4.40;99.90;;;;;;4400743;32;20090;-74
2020/12/30 10:01:30;;;;;;;0.93;0.93;;;4.50;99.90;;;;;;4400614;32;20065;-74
2020/12/30 10:03:55;;;;;;;0.73;0.73;;;4.50;99.90;;;;;;4400778;32;20074;-74
2020/12/30 10:06:21;;;;;;;0.40;0.40;;;4.60;99.90;;;;;;4393176;32;20142;-74
2020/12/30 10:08:46;;;;;;;0.70;0.65;;;4.80;99.90;;;;;;4385222;32;20075;-74
2020/12/30 10:11:15;;;;;;;2.30;1.02;;;4.80;99.90;;;;;;4391824;32;20065;-74
2020/12/30 10:13:41;;;;;;;2.42;0.80;;;4.90;99.90;;;;;;4400116;32;20066;-74
2020/12/30 10:16:06;;;;;;;0.35;0.35;;;4.80;99.90;;;;;;4399876;32;20074;-74
2020/12/30 10:18:32;;;;;;;0.40;0.40;;;4.90;99.90;;;;;;4391258;32;20094;-74
2020/12/30 10:20:57;;;;;;;0.70;0.70;;;5.00;99.90;;;;;;4385430;32;20393;-74
2020/12/30 10:23:23;;;;;;;21.17;0.82;;;4.90;99.90;;;;;;4384483;32;20066;-74
2020/12/30 10:25:49;;;;;;;0.40;0.40;;;4.80;99.90;;;;;;4384879;32;20413;-74
2020/12/30 10:28:15;;;;;;;0.57;0.57;;;4.90;99.90;;;;;;4385396;32;20063;-74
2020/12/30 10:30:40;;;;;;;0.47;0.47;;;5.00;99.90;;;;;;4385104;32;20061;-74
2020/12/30 10:33:06;;;;;;;0.40;0.40;;;5.10;99.90;;;;;;4386732;32;20502;-74
2020/12/30 10:35:31;;;;;;;0.30;0.30;;;4.90;99.90;;;;;;4386267;32;20066;-74
2020/12/30 10:37:57;;;;;;;0.30;0.30;;;5.00;99.90;;;;;;4385000;32;20097;-74
2020/12/30 10:40:22;;;;;;;0.55;0.55;;;4.90;99.90;;;;;;4384128;32;20083;-74
2020/12/30 10:42:48;;;;;;;0.50;0.50;;;5.00;99.90;;;;;;4385002;32;20094;-74
2020/12/30 10:45:14;;;;;;;0.52;0.52;;;4.90;99.90;;;;;;4384919;32;20074;-74
2020/12/30 10:47:40;;;;;;;0.62;0.62;;;4.90;99.90;;;;;;4385012;32;20486;-74
2020/12/30 10:50:06;;;;;;;0.47;0.47;;;5.10;99.90;;;;;;4384732;32;20124;-74
2020/12/30 10:52:31;;;;;;;0.52;0.52;;;5.10;99.90;;;;;;4384434;32;20081;-74
2020/12/30 10:54:57;;;;;;;0.30;0.30;;;5.10;99.90;;;;;;4384883;32;20066;-75
2020/12/30 10:57:22;;;;;;;0.40;0.40;;;5.10;99.90;;;;;;4393322;32;20082;-74
2020/12/30 10:59:48;;;;;;;0.30;0.30;;;5.20;99.90;;;;;;4400136;32;20075;-74
2020/12/30 11:02:13;;;;;;;0.50;0.50;;;5.30;99.90;;;;;;4399683;32;20121;-75
2020/12/30 11:04:39;;;;;;;0.57;0.57;;;5.30;99.90;;;;;;4400373;32;20092;-75
2020/12/30 11:07:04;;;;;;;0.40;0.40;;;5.20;99.90;;;;;;4388117;32;20069;-74
2020/12/30 11:09:30;;;;;;;0.50;0.50;;;5.20;99.90;;;;;;4384899;32;20070;-74
2020/12/30 11:11:56;;;;;;;0.30;0.30;;;5.30;99.90;;;;;;4395636;32;20070;-74
2020/12/30 11:14:21;;;;;;;0.37;0.37;;;5.50;99.90;;;;;;4399261;32;20070;-74
2020/12/30 11:16:49;;;;;;;1.27;1.00;;;5.50;99.90;;;;;;4401500;32;20086;-74
2020/12/30 11:19:14;;;;;;;0.60;0.60;;;5.50;99.90;;;;;;4385856;32;20062;-74
2020/12/30 11:21:40;;;;;;;0.82;0.82;;;5.60;99.90;;;;;;4384239;32;20129;-75
2020/12/30 11:24:05;;;;;;;0.93;0.60;;;5.70;99.90;;;;;;4385581;32;20129;-75
2020/12/30 11:26:31;;;;;;;0.57;0.57;;;5.70;99.90;;;;;;4384288;32;20137;-75
2020/12/30 11:28:56;;;;;;;0.40;0.40;;;5.90;99.90;;;;;;4384983;32;20075;-75
2020/12/30 11:31:22;;;;;;;0.32;0.32;;;6.00;99.90;;;;;;4385406;32;20078;-75
2020/12/30 11:33:47;;;;;;;2.03;1.25;;;6.20;99.90;;;;;;4384588;32;20430;-74
2020/12/30 11:36:13;;;;;;;1.15;1.05;;;6.20;99.90;;;;;;4384707;32;20528;-74
2020/12/30 11:38:39;;;;;;;0.43;0.43;;;6.20;99.90;;;;;;4385038;32;20074;-74
2020/12/30 11:41:04;;;;;;;0.50;0.50;;;6.40;99.90;;;;;;4384120;32;20427;-74
2020/12/30 11:43:30;;;;;;;0.47;0.47;;;6.50;99.90;;;;;;4384386;32;20453;-75
2020/12/30 11:45:55;;;;;;;0.35;0.35;;;6.70;99.90;;;;;;4384241;32;20181;-75
2020/12/30 11:48:21;;;;;;;0.30;0.30;;;6.80;99.90;;;;;;4384603;32;20410;-75
2020/12/30 11:50:47;;;;;;;0.60;0.60;;;6.90;99.90;;;;;;4384244;32;20125;-75
2020/12/30 11:53:12;;;;;;;0.40;0.40;;;6.70;99.90;;;;;;4384919;32;20481;-75
2020/12/30 11:55:38;;;;;;;0.37;0.37;;;6.70;99.90;;;;;;4384442;32;20062;-75
2020/12/30 11:58:03;;;;;;;0.30;0.30;;;6.70;99.90;;;;;;4396935;32;20065;-75
2020/12/30 12:00:29;;;;;;;0.40;0.40;;;6.80;99.90;;;;;;4400210;32;20074;-75
2020/12/30 12:02:54;;;;;;;0.40;0.40;;;7.00;99.90;;;;;;4399431;32;20524;-75
2020/12/30 12:05:20;;;;;;;0.37;0.37;;;7.20;99.90;;;;;;4398674;32;20070;-75
2020/12/30 12:07:45;;;;;;;0.70;0.70;;;7.30;99.90;;;;;;4385058;32;20078;-75
2020/12/30 12:10:11;;;;;;;0.37;0.37;;;7.70;99.90;;;;;;4384568;32;20066;-75
2020/12/30 12:12:38;;;;;;;0.47;0.47;;;7.80;99.90;;;;;;4400155;32;20070;-75
2020/12/30 12:15:05;;;;;;;0.50;0.50;;;7.80;99.90;;;;;;4399386;32;20117;-75
2020/12/30 12:17:31;;;;;;;4.37;0.77;;;8.00;99.90;;;;;;4400656;32;20082;-75
2020/12/30 12:19:56;;;;;;;0.45;0.45;;;8.00;99.90;;;;;;4399052;32;20070;-75
2020/12/30 12:22:22;;;;;;;0.40;0.40;;;8.10;99.90;;;;;;4399828;32;20084;-75
2020/12/30 12:24:48;;;;;;;0.30;0.30;;;8.20;99.90;;;;;;4398236;32;20082;-75
2020/12/30 12:27:13;;;;;;;0.43;0.40;;;8.00;99.90;;;;;;4400024;32;20124;-75
2020/12/30 12:29:42;;;;;;;0.30;0.30;;;8.10;99.90;;;;;;4399823;32;20511;-75
2020/12/30 12:32:11;;;;;;;0.30;0.30;;;8.30;99.90;;;;;;4400095;32;20074;-75
2020/12/30 12:34:38;;;;;;;0.40;0.40;;;8.50;99.90;;;;;;4400185;32;20120;-75
2020/12/30 12:37:05;;;;;;;2.22;0.60;;;8.60;99.90;;;;;;4399297;32;20075;-75
2020/12/30 12:39:32;;;;;;;0.40;0.40;;;8.70;99.90;;;;;;4397843;32;20598;-75
2020/12/30 12:41:57;;;;;;;0.30;0.30;;;8.90;99.90;;;;;;4398884;32;20127;-75
2020/12/30 12:44:24;;;;;;;0.50;0.50;;;9.20;99.90;;;;;;4398004;32;20094;-75
2020/12/30 12:46:50;;;;;;;0.55;0.37;;;9.40;99.90;;;;;;4398830;32;20087;-75
2020/12/30 12:49:16;;;;;;;1.37;0.73;;;9.30;99.90;;;;;;4398638;32;20077;-75
2020/12/30 12:51:47;;;;;;;0.57;0.57;;;9.30;99.90;;;;;;4398313;32;20062;-75
2020/12/30 12:54:12;;;;;;;;;;;9.20;99.90;;;;;;4399243;32;20491;-75
2020/12/30 12:56:38;;;;;;;1.67;0.77;;;9.30;99.90;;;;;;4396001;32;19956;-75